Time;durP1;ratioP1;P1;durP2;ratioP2;P2;SDS_P1;SDS_P2;PMS_P1;PMS_P2;Temp;Humidity;BMP_temperature;BMP_pressure;BME280_temperature;BME280_humidity;BME280_pressure;Samples;Min_cycle;Max_cycle;Signal;HPM_P1;HPM_P2
2022/09/04 00:04:23;;;;;;;1.93;1.30;;;;;;;;;;20793628;28;20216;-76
2022/09/04 00:15:05;;;;;;;1.20;0.90;;;18.90;99.90;;;;;;20793217;28;20210;-76
2022/09/04 00:25:07;;;;;;;1.60;1.20;;;;;;;;;;20703701;28;20252;-76
2022/09/04 00:35:14;;;;;;;3.67;1.30;;;19.00;99.90;;;;;;20790925;28;20683;-76
2022/09/04 00:45:31;;;;;;;3.20;1.77;;;18.90;99.90;;;;;;20800074;28;20284;-76
2022/09/04 00:55:33;;;;;;;1.73;1.20;;;;;;;;;;20789791;28;20282;-76
2022/09/04 01:06:10;;;;;;;1.80;1.37;;;18.70;99.90;;;;;;20789427;28;20634;-76
2022/09/04 01:16:12;;;;;;;2.50;1.40;;;;;;;;;;20788214;28;20207;-76
2022/09/04 01:26:19;;;;;;;1.50;0.90;;;;;;;;;;20799765;22;20714;-76
2022/09/04 01:36:41;;;;;;;1.53;1.00;;;18.90;99.90;;;;;;20812181;28;20289;-77
2022/09/04 01:46:43;;;;;;;1.40;1.00;;;;;;;;;;20821214;28;20216;-76
2022/09/04 01:56:49;;;;;;;1.50;1.07;;;;;;;;;;20813272;28;20672;-76
2022/09/04 02:07:09;;;;;;;1.37;0.83;;;;;;;;;;20814336;28;20231;-76
2022/09/04 02:17:24;;;;;;;1.50;1.10;;;18.40;99.90;;;;;;20816846;28;20270;-76
2022/09/04 02:27:26;;;;;;;1.60;1.07;;;;;;;;;;20795807;28;20586;-76
2022/09/04 02:38:06;;;;;;;1.30;0.97;;;18.50;99.90;;;;;;20828650;28;20741;-76
2022/09/04 02:48:16;;;;;;;1.07;0.77;;;18.40;99.90;;;;;;20831837;28;20663;-77
2022/09/04 02:58:38;;;;;;;1.33;0.90;;;;;;;;;;20833472;28;20211;-78
2022/09/04 03:08:50;;;;;;;1.57;0.90;;;18.10;99.90;;;;;;20831446;28;20223;-77
2022/09/04 03:18:58;;;;;;;1.37;0.80;;;;;;;;;;20837944;28;20210;-77
2022/09/04 03:29:33;;;;;;;1.30;0.90;;;18.00;99.90;;;;;;20833778;28;20214;-75
2022/09/04 03:40:00;;;;;;;2.50;1.33;;;18.00;99.90;;;;;;20827259;28;20197;-76
2022/09/04 03:50:08;;;;;;;3.23;1.00;;;;;;;;;;20827075;28;20249;-76
2022/09/04 04:00:14;;;;;;;3.10;1.37;;;;;;;;;;20825753;28;20261;-76
2022/09/04 04:10:18;;;;;;;2.73;1.50;;;;;;;;;;20825355;28;20633;-78
2022/09/04 04:20:21;;;;;;;1.57;1.07;;;;;;;;;;20807763;28;20212;-77
2022/09/04 04:30:22;;;;;;;3.87;0.90;;;;;;;;;;20822255;28;20631;-77
2022/09/04 04:40:45;;;;;;;1.40;0.97;;;17.90;99.90;;;;;;20829652;28;20194;-78
2022/09/04 04:50:58;;;;;;;1.27;0.97;;;;;;;;;;20807778;28;20289;-77
2022/09/04 05:01:06;;;;;;;1.83;1.10;;;;;;;;;;20799479;28;20210;-77
2022/09/04 05:11:28;;;;;;;2.10;1.00;;;17.60;99.90;;;;;;20806063;28;20214;-76
2022/09/04 05:22:07;;;;;;;2.50;1.20;;;17.70;99.90;;;;;;20796147;28;20222;-76
2022/09/04 05:32:25;;;;;;;3.07;1.00;;;17.90;99.90;;;;;;20803433;28;20230;-75
2022/09/04 05:42:51;;;;;;;3.17;0.97;;;17.70;99.90;;;;;;20808967;28;20751;-76
2022/09/04 05:52:53;;;;;;;9.00;1.53;;;;;;;;;;20815598;28;20565;-76
2022/09/04 06:03:06;;;;;;;5.67;1.10;;;;;;;;;;20829925;28;20616;-76
2022/09/04 06:13:14;;;;;;;9.90;1.33;;;;;;;;;;20831447;28;20191;-76
2022/09/04 06:23:21;;;;;;;2.67;1.10;;;;;;;;;;20826907;28;20210;-76
2022/09/04 06:33:29;;;;;;;2.70;1.10;;;;;;;;;;20832222;28;20187;-74
2022/09/04 06:43:54;;;;;;;1.47;0.70;;;17.80;99.90;;;;;;20825401;28;20219;-77
2022/09/04 06:54:18;;;;;;;2.50;1.67;;;;;;;;;;20826522;28;20210;-78
2022/09/04 07:04:48;;;;;;;1.37;0.80;;;17.10;99.90;;;;;;20834025;28;20223;-78
2022/09/04 07:15:11;;;;;;;3.37;1.17;;;;;;;;;;20816481;28;20276;-76
2022/09/04 07:25:16;;;;;;;1.60;1.03;;;;;;;;;;20850594;22;20206;-75
2022/09/04 07:35:37;;;;;;;1.97;1.27;;;;;;;;;;20816107;28;20224;-73
2022/09/04 07:45:50;;;;;;;1.53;1.10;;;;;;;;;;20809758;28;20704;-74
2022/09/04 07:56:11;;;;;;;2.00;1.40;;;18.20;99.90;;;;;;20829967;28;20265;-74
2022/09/04 08:06:16;;;;;;;1.63;1.20;;;;;;;;;;20818372;28;20280;-73
2022/09/04 08:16:23;;;;;;;3.03;1.80;;;;;;;;;;20817353;28;20225;-74
2022/09/04 08:26:28;;;;;;;2.50;1.70;;;;;;;;;;20823345;28;20222;-73
2022/09/04 08:36:33;;;;;;;2.70;1.80;;;;;;;;;;20787303;28;20295;-74
2022/09/04 08:47:02;;;;;;;3.83;1.63;;;;;;;;;;20803589;28;20219;-74
2022/09/04 08:57:08;;;;;;;2.27;1.77;;;;;;;;;;20810199;28;20274;-72
2022/09/04 09:07:27;;;;;;;3.03;2.60;;;;;;;;;;20814026;28;20207;-74
2022/09/04 09:17:39;;;;;;;3.13;2.20;;;;;;;;;;20814010;28;20532;-74
2022/09/04 09:28:00;;;;;;;2.90;2.00;;;;;;;;;;20808837;28;20578;-71
2022/09/04 09:38:15;;;;;;;3.60;1.90;;;;;;;;;;20812955;28;20599;-74
2022/09/04 09:48:35;;;;;;;2.63;2.07;;;;;;;;;;20811925;28;20215;-74
2022/09/04 09:58:49;;;;;;;2.27;1.70;;;21.00;99.90;;;;;;20811992;28;20200;-73
2022/09/04 10:09:08;;;;;;;2.00;1.40;;;;;;;;;;20812723;28;20220;-75
2022/09/04 10:19:28;;;;;;;2.15;1.77;;;;;;;;;;20807037;28;20615;-72
2022/09/04 10:29:57;;;;;;;2.10;1.80;;;;;;;;;;20809587;28;20215;-75
2022/09/04 10:50:21;;;;;;;1.67;1.30;;;;;;;;;;20821642;28;20225;-73
2022/09/04 11:00:35;;;;;;;2.00;1.52;;;;;;;;;;20820686;28;20217;-70
2022/09/04 11:10:40;;;;;;;2.42;1.90;;;;;;;;;;20823056;28;20253;-74
2022/09/04 11:20:56;;;;;;;2.43;1.77;;;;;;;;;;20822886;28;20269;-68
2022/09/04 11:31:07;;;;;;;2.00;1.40;;;;;;;;;;20821939;28;20226;-73
2022/09/04 11:41:36;;;;;;;1.90;1.30;;;21.60;99.90;;;;;;20821151;28;20546;-70
2022/09/04 11:51:59;;;;;;;1.33;1.00;;;21.70;99.90;;;;;;20819726;28;20579;-70
2022/09/04 12:02:01;;;;;;;2.50;1.00;;;;;;;;;;20816270;28;20671;-71
2022/09/04 12:12:10;;;;;;;3.60;1.10;;;;;;;;;;20815379;28;20220;-71
2022/09/04 12:22:35;;;;;;;1.65;0.98;;;;;;;;;;20812683;28;20260;-72
2022/09/04 12:32:46;;;;;;;0.70;0.50;;;;;;;;;;20810793;28;20226;-72
2022/09/04 12:43:03;;;;;;;1.15;0.60;;;;;;;;;;20809660;28;20263;-71
2022/09/04 12:53:11;;;;;;;0.95;0.63;;;;;;;;;;20809895;28;20770;-72
2022/09/04 13:03:29;;;;;;;1.10;0.60;;;;;;;;;;20817027;28;20337;-72
2022/09/04 13:14:04;;;;;;;0.77;0.40;;;24.60;99.90;;;;;;20818462;28;20204;-72
2022/09/04 13:24:08;;;;;;;0.50;0.40;;;;;;;;;;20795471;28;20263;-73
2022/09/04 13:34:20;;;;;;;0.40;0.32;;;;;;;;;;20854356;22;20237;-73
2022/09/04 13:44:49;;;;;;;1.10;0.70;;;;;;;;;;20880091;28;20232;-73
2022/09/04 13:55:22;;;;;;;0.90;0.65;;;25.00;99.90;;;;;;20896943;28;20213;-74
2022/09/04 14:05:25;;;;;;;0.60;0.47;;;;;;;;;;20895928;28;20232;-73
2022/09/04 14:15:47;;;;;;;0.40;0.40;;;;;;;;;;20892352;28;20273;-74
2022/09/04 14:26:12;;;;;;;1.05;0.40;;;24.50;99.90;;;;;;20883258;28;20225;-74
2022/09/04 14:36:34;;;;;;;1.20;0.40;;;;;;;;;;20866633;28;20231;-74
2022/09/04 14:46:43;;;;;;;1.92;0.50;;;;;;;;;;20907622;28;20252;-74
2022/09/04 14:56:49;;;;;;;0.90;0.60;;;25.80;99.90;;;;;;20900763;28;20191;-76
2022/09/04 15:07:03;;;;;;;1.65;0.40;;;;;;;;;;20905019;28;20600;-78
2022/09/04 15:17:11;;;;;;;0.60;0.50;;;;;;;;;;20901030;28;20574;-75
2022/09/04 15:27:27;;;;;;;0.30;0.30;;;;;;;;;;20900021;28;20217;-76
2022/09/04 15:37:28;;;;;;;0.52;0.40;;;;;;;;;;20893345;28;20730;-76
2022/09/04 15:47:49;;;;;;;1.10;0.47;;;;;;;;;;20895369;28;20315;-76
2022/09/04 15:58:10;;;;;;;0.40;0.40;;;;;;;;;;20895753;28;20205;-76
2022/09/04 16:08:19;;;;;;;0.47;0.38;;;;;;;;;;20856809;28;20218;-76
2022/09/04 16:18:44;;;;;;;1.20;0.40;;;25.30;99.90;;;;;;20896618;28;20212;-76
2022/09/04 16:28:50;;;;;;;0.50;0.30;;;;;;;;;;20882201;28;20209;-75
2022/09/04 16:38:58;;;;;;;0.50;0.40;;;;;;;;;;20889343;28;20220;-76
2022/09/04 16:49:08;;;;;;;0.40;0.30;;;;;;;;;;20873056;28;20321;-75
2022/09/04 16:59:13;;;;;;;0.70;0.40;;;;;;;;;;20884190;28;20284;-76
2022/09/04 17:09:15;;;;;;;0.40;0.30;;;;;;;;;;20862020;28;20221;-76
2022/09/04 17:19:17;;;;;;;0.40;0.40;;;;;;;;;;20867216;28;20200;-76
2022/09/04 17:29:23;;;;;;;0.93;0.70;;;;;;;;;;20882549;28;20233;-76
2022/09/04 17:39:32;;;;;;;0.73;0.40;;;;;;;;;;20888696;28;20553;-75
2022/09/04 17:49:33;;;;;;;0.70;0.50;;;;;;;;;;20892716;28;20222;-75
2022/09/04 17:59:35;;;;;;;1.30;0.60;;;;;;;;;;20907264;28;20269;-75
2022/09/04 18:10:07;;;;;;;3.80;0.50;;;23.50;99.90;;;;;;20911997;28;20264;-74
2022/09/04 18:20:15;;;;;;;0.85;0.52;;;;;;;;;;20884553;28;20212;-74
2022/09/04 18:30:17;;;;;;;2.08;0.50;;;;;;;;;;20862309;28;20268;-74
2022/09/04 18:40:27;;;;;;;2.55;0.60;;;;;;;;;;20884173;28;20217;-74
2022/09/04 18:50:33;;;;;;;0.82;0.50;;;;;;;;;;20822988;28;20223;-74
2022/09/04 19:00:39;;;;;;;2.03;0.90;;;;;;;;;;20820849;28;20574;-74
2022/09/04 19:10:45;;;;;;;0.68;0.50;;;22.80;99.90;;;;;;20821374;28;20219;-74
2022/09/04 19:20:53;;;;;;;0.77;0.50;;;;;;;;;;20865192;28;20205;-74
2022/09/04 19:30:58;;;;;;;0.50;0.40;;;;;;;;;;20925406;28;20245;-74
2022/09/04 19:41:04;;;;;;;0.82;0.60;;;;;;;;;;20865622;22;20234;-74
2022/09/04 19:51:12;;;;;;;1.00;0.68;;;22.60;99.90;;;;;;20766754;28;20658;-75
2022/09/04 20:01:18;;;;;;;1.50;0.70;;;22.50;99.90;;;;;;20773503;28;20209;-75
2022/09/04 20:11:24;;;;;;;1.33;0.68;;;;;;;;;;20816454;28;20660;-75
2022/09/04 20:21:32;;;;;;;2.42;0.70;;;;;;;;;;20817021;28;20552;-76
2022/09/04 20:31:39;;;;;;;0.73;0.60;;;;;;;;;;20818884;28;20214;-76
2022/09/04 20:41:41;;;;;;;1.42;0.90;;;;;;;;;;20819687;28;20220;-76
2022/09/04 20:51:51;;;;;;;1.17;0.90;;;;;;;;;;20818005;28;20721;-75
2022/09/04 21:02:09;;;;;;;1.02;0.80;;;;;;;;;;20817272;28;20214;-75
2022/09/04 21:12:24;;;;;;;2.13;0.70;;;;;;;;;;20816240;28;20590;-76
2022/09/04 21:22:34;;;;;;;0.90;0.70;;;;;;;;;;20763743;28;20989;-75
2022/09/04 21:33:28;;;;;;;1.00;0.70;;;21.70;99.90;;;;;;20736883;28;20265;-76
2022/09/04 21:43:42;;;;;;;1.25;0.70;;;21.50;99.90;;;;;;20706749;28;20225;-75
2022/09/04 21:53:44;;;;;;;1.08;0.75;;;;;;;;;;20807566;28;20292;-75
2022/09/04 22:03:52;;;;;;;1.90;0.90;;;;;;;;;;20814885;28;20213;-75
2022/09/04 22:14:15;;;;;;;0.88;0.60;;;;;;;;;;20731720;28;20620;-73
2022/09/04 22:24:17;;;;;;;1.00;0.80;;;;;;;;;;20732765;28;20247;-75
2022/09/04 22:34:37;;;;;;;2.03;0.80;;;;;;;;;;20730954;28;20232;-75
2022/09/04 22:44:53;;;;;;;3.53;1.20;;;21.20;99.90;;;;;;20740756;28;20633;-74
2022/09/04 22:55:20;;;;;;;1.17;0.90;;;20.80;99.90;;;;;;20746721;28;20248;-74
2022/09/04 23:05:43;;;;;;;1.20;0.87;;;;;;;;;;20742587;28;20632;-74
2022/09/04 23:15:46;;;;;;;2.53;0.70;;;;;;;;;;20746867;28;20244;-74
2022/09/04 23:26:09;;;;;;;1.03;0.80;;;20.70;99.90;;;;;;20714934;28;20219;-74
2022/09/04 23:36:16;;;;;;;1.30;0.80;;;20.60;99.90;;;;;;20745167;28;20227;-74
2022/09/04 23:46:33;;;;;;;1.83;1.00;;;20.60;99.90;;;;;;20740837;28;20709;-74
2022/09/04 23:56:40;;;;;;;1.03;0.80;;;;;;;;;;20796035;28;20272;-74
